createdAt,value
2019-04-23T00:03:51.937Z,19.77
2019-04-23T00:06:23.591Z,20.88
2019-04-23T00:09:05.139Z,25.75
2019-04-23T00:11:31.339Z,18.97
2019-04-23T00:13:58.949Z,22.60
2019-04-23T00:18:50.867Z,26.70
2019-04-23T00:21:40.518Z,25.48
2019-04-23T00:24:17.563Z,18.55
2019-04-23T00:26:47.537Z,17.00
2019-04-23T00:29:13.557Z,30.05
2019-04-23T00:31:36.256Z,22.35
2019-04-23T00:34:11.005Z,18.25
2019-04-23T00:36:42.387Z,20.80
2019-04-23T00:39:08.275Z,12.20
2019-04-23T00:41:44.217Z,14.07
2019-04-23T00:44:32.424Z,17.75
2019-04-23T00:46:41.457Z,18.23
2019-04-23T00:51:56.976Z,12.40
2019-04-23T00:54:17.763Z,22.37
2019-04-23T00:56:48.768Z,17.13
2019-04-23T00:59:19.441Z,21.93
2019-04-23T01:01:49.675Z,21.93
2019-04-23T01:04:20.473Z,15.40
2019-04-23T01:06:52.330Z,17.50
2019-04-23T01:09:15.235Z,15.72
2019-04-23T01:11:49.677Z,19.43
2019-04-23T01:14:20.137Z,24.82
2019-04-23T01:16:45.984Z,25.67
2019-04-23T01:19:31.659Z,23.20
2019-04-23T01:21:34.724Z,19.97
2019-04-23T01:24:14.379Z,25.72
2019-04-23T01:27:32.517Z,13.87
2019-04-23T01:29:59.992Z,14.60
2019-04-23T01:32:30.427Z,37.42
2019-04-23T01:35:05.071Z,21.77
2019-04-23T01:37:26.811Z,20.70
2019-04-23T01:39:58.114Z,20.07
2019-04-23T01:42:29.429Z,12.73
2019-04-23T01:45:01.382Z,17.70
2019-04-23T01:47:26.786Z,18.37
2019-04-23T01:50:06.656Z,25.73
2019-04-23T01:52:31.923Z,21.27
2019-04-23T01:55:01.455Z,16.82
2019-04-23T01:57:31.124Z,23.30
2019-04-23T02:00:03.124Z,11.50
2019-04-23T02:02:41.180Z,12.53
2019-04-23T02:05:01.319Z,13.37
2019-04-23T02:07:38.217Z,18.13
2019-04-23T02:10:07.148Z,17.40
2019-04-23T02:12:33.396Z,29.83
2019-04-23T02:15:10.185Z,19.90
2019-04-23T02:20:09.201Z,20.10
2019-04-23T02:22:50.172Z,18.83
2019-04-23T02:25:28.043Z,17.77
2019-04-23T02:27:58.295Z,21.87
2019-04-23T02:30:49.491Z,23.90
2019-04-23T02:33:02.858Z,14.60
2019-04-23T02:35:36.993Z,21.30
2019-04-23T02:38:00.766Z,18.10
2019-04-23T02:45:27.080Z,11.77
2019-04-23T02:50:34.511Z,19.50
2019-04-23T02:55:39.438Z,9.83
2019-04-23T02:58:01.921Z,12.07
2019-04-23T03:00:55.181Z,18.27
2019-04-23T03:05:36.061Z,14.93
2019-04-23T03:10:31.273Z,19.10
2019-04-23T03:13:09.827Z,15.53
2019-04-23T03:15:50.115Z,20.27
2019-04-23T03:18:35.301Z,18.85
2019-04-23T03:24:11.516Z,12.67
2019-04-23T03:29:06.519Z,23.47
2019-04-23T03:33:58.830Z,20.70
2019-04-23T03:38:56.324Z,22.20
2019-04-23T03:43:47.039Z,18.23
2019-04-23T03:48:53.209Z,26.90
2019-04-23T03:58:59.081Z,24.75
2019-04-23T04:01:30.300Z,20.60
2019-04-23T04:11:36.414Z,20.83
2019-04-23T04:14:12.565Z,22.37
2019-04-23T04:16:36.144Z,27.85
2019-04-23T04:24:11.217Z,32.50
2019-04-23T04:26:49.330Z,23.67
2019-04-23T04:34:21.399Z,25.30
2019-04-23T04:36:53.567Z,12.80
2019-04-23T04:39:08.055Z,25.48
2019-04-23T04:44:26.409Z,19.37
2019-04-23T04:46:45.558Z,21.07
2019-04-23T04:49:17.033Z,21.63
2019-04-23T04:54:13.956Z,13.65
2019-04-23T04:56:58.151Z,29.10
2019-04-23T05:01:53.840Z,10.50
2019-04-23T05:04:24.755Z,14.80
2019-04-23T05:06:51.182Z,16.73
2019-04-23T05:09:21.330Z,23.25
2019-04-23T05:11:52.293Z,30.47
2019-04-23T05:14:20.931Z,12.70
2019-04-23T05:16:53.290Z,9.05
2019-04-23T05:24:23.479Z,27.25
2019-04-23T05:26:38.988Z,20.53
2019-04-23T05:31:45.255Z,28.67
2019-04-23T05:34:19.523Z,26.87
2019-04-23T05:41:55.758Z,28.67
2019-04-23T05:44:21.152Z,25.70
2019-04-23T05:46:50.730Z,36.50
2019-04-23T05:51:57.437Z,32.88
2019-04-23T05:54:27.736Z,45.60
2019-04-23T05:56:51.650Z,39.25
2019-04-23T05:59:26.201Z,37.35
2019-04-23T06:01:58.806Z,42.78
2019-04-23T06:07:15.121Z,37.42
2019-04-23T06:09:28.711Z,26.65
2019-04-23T06:14:32.737Z,35.85
2019-04-23T06:17:03.468Z,35.68
2019-04-23T06:19:48.344Z,28.57
2019-04-23T06:22:07.483Z,32.23
2019-04-23T06:29:32.141Z,37.20
2019-04-23T06:32:02.763Z,45.88
2019-04-23T06:34:46.986Z,27.30
2019-04-23T06:37:02.225Z,31.45
2019-04-23T06:39:42.741Z,40.63
2019-04-23T06:42:20.853Z,43.45
2019-04-23T06:44:45.395Z,42.03
2019-04-23T06:47:16.771Z,31.42
2019-04-23T06:49:54.625Z,20.37
2019-04-23T06:52:19.001Z,49.10
2019-04-23T06:54:55.735Z,37.50
2019-04-23T06:59:48.582Z,42.38
2019-04-23T07:05:10.533Z,31.97
2019-04-23T07:09:51.629Z,33.20
2019-04-23T07:12:35.023Z,26.93
2019-04-23T07:15:02.698Z,35.23
2019-04-23T07:17:34.844Z,38.20
2019-04-23T07:19:56.583Z,41.40
2019-04-23T07:22:23.566Z,55.38
2019-04-23T07:24:57.605Z,23.35
2019-04-23T07:27:26.277Z,42.38
2019-04-23T07:30:03.879Z,25.60
2019-04-23T07:32:47.897Z,29.57
2019-04-23T07:37:34.372Z,28.12
2019-04-23T07:40:26.292Z,35.20
2019-04-23T07:43:03.286Z,34.35
2019-04-23T07:48:10.618Z,31.68
2019-04-23T07:50:43.852Z,53.70
2019-04-23T07:53:16.998Z,35.58
2019-04-23T08:08:16.730Z,41.25
2019-04-23T08:11:01.513Z,33.10
2019-04-23T08:13:27.253Z,29.87
2019-04-23T08:15:46.556Z,34.38
2019-04-23T08:18:29.659Z,32.40
2019-04-23T08:20:55.110Z,40.85
2019-04-23T08:23:44.034Z,29.92
2019-04-23T08:26:34.867Z,29.25
2019-04-23T08:31:40.241Z,32.23
2019-04-23T08:34:29.673Z,37.75
2019-04-23T08:37:03.177Z,29.70
2019-04-23T08:39:26.405Z,46.02
2019-04-23T08:42:24.454Z,36.15
2019-04-23T08:44:44.594Z,38.20
2019-04-23T08:47:04.773Z,35.75
2019-04-23T08:52:10.495Z,31.82
2019-04-23T08:54:48.385Z,26.85
2019-04-23T08:57:08.864Z,34.63
2019-04-23T08:59:43.835Z,26.05
2019-04-23T09:02:25.589Z,34.58
2019-04-23T09:04:49.580Z,31.45
2019-04-23T09:09:45.441Z,27.02
2019-04-23T09:12:13.717Z,49.58
2019-04-23T09:14:42.427Z,40.38
2019-04-23T09:17:11.246Z,35.70
2019-04-23T09:19:53.148Z,26.80
2019-04-23T09:22:14.631Z,27.00
2019-04-23T09:24:40.272Z,34.48
2019-04-23T09:27:16.334Z,30.52
2019-04-23T09:30:00.818Z,37.23
2019-04-23T09:37:26.522Z,31.48
2019-04-23T09:40:20.514Z,38.23
2019-04-23T09:45:23.303Z,34.70
2019-04-23T09:47:57.265Z,34.33
2019-04-23T09:50:23.493Z,33.48
2019-04-23T09:53:05.558Z,38.90
2019-04-23T09:55:28.626Z,31.80
2019-04-23T09:58:00.630Z,37.75
2019-04-23T10:00:32.984Z,26.48
2019-04-23T10:02:45.742Z,30.35
2019-04-23T10:05:11.233Z,38.05
2019-04-23T10:07:41.908Z,33.10
2019-04-23T10:09:59.550Z,28.77
2019-04-23T10:12:30.138Z,30.72
2019-04-23T10:15:08.094Z,24.18
2019-04-23T10:17:29.642Z,34.43
2019-04-23T10:19:58.448Z,31.00
2019-04-23T10:22:30.086Z,33.58
2019-04-23T10:24:59.239Z,24.43
2019-04-23T10:27:29.434Z,30.37
2019-04-23T10:29:59.600Z,34.85
2019-04-23T10:32:29.816Z,20.00
2019-04-23T10:35:10.174Z,31.52
2019-04-23T10:37:39.631Z,23.50
2019-04-23T10:40:03.543Z,23.22
2019-04-23T10:42:32.081Z,24.27
2019-04-23T10:45:28.980Z,21.77
2019-04-23T10:51:30.638Z,26.30
2019-04-23T10:59:05.926Z,27.00
2019-04-23T11:01:39.094Z,30.23
2019-04-23T11:04:21.857Z,27.13
2019-04-23T11:06:45.092Z,36.00
2019-04-23T11:09:28.750Z,36.88
2019-04-23T11:11:44.891Z,32.28
2019-04-23T11:14:22.961Z,34.38
2019-04-23T11:19:30.621Z,37.13
2019-04-23T11:21:56.275Z,21.80
2019-04-23T11:24:32.465Z,27.48
2019-04-23T11:26:52.850Z,36.75
2019-04-23T11:29:29.795Z,26.93
2019-04-23T11:31:58.464Z,27.27
2019-04-23T11:34:43.949Z,31.93
2019-04-23T11:39:28.746Z,38.45
2019-04-23T11:41:58.015Z,28.87
2019-04-23T11:44:26.925Z,23.55
2019-04-23T11:47:27.134Z,23.57
2019-04-23T11:52:03.241Z,24.07
2019-04-23T11:54:25.761Z,41.55
2019-04-23T12:04:53.224Z,26.25
2019-04-23T12:07:22.918Z,20.32
2019-04-23T12:09:56.316Z,29.92
2019-04-23T12:12:23.752Z,29.27
2019-04-23T12:15:15.951Z,30.88
2019-04-23T12:20:00.064Z,30.52
2019-04-23T12:27:31.361Z,33.55
2019-04-23T12:32:53.748Z,32.33
2019-04-23T12:35:18.671Z,35.28
2019-04-23T12:38:00.825Z,41.48
2019-04-23T12:40:23.529Z,27.17
2019-04-23T12:50:42.469Z,29.95
2019-04-23T12:52:51.215Z,40.80
2019-04-23T12:55:34.046Z,27.87
2019-04-23T13:00:25.738Z,26.70
2019-04-23T13:02:58.859Z,26.95
2019-04-23T13:08:02.036Z,21.93
2019-04-23T13:10:28.313Z,46.95
2019-04-23T13:13:01.545Z,31.90
2019-04-23T13:15:40.781Z,32.15
2019-04-23T13:20:46.795Z,35.28
2019-04-23T13:23:22.164Z,23.60
2019-04-23T13:28:27.427Z,44.73
2019-04-23T13:31:00.223Z,51.37
2019-04-23T13:38:38.270Z,44.05
2019-04-23T13:41:20.503Z,32.45
2019-04-23T13:43:48.185Z,29.67
2019-04-23T13:46:17.983Z,34.15
2019-04-23T13:48:44.926Z,37.78
2019-04-23T13:51:21.217Z,45.20
2019-04-23T13:56:56.003Z,39.70
2019-04-23T14:01:40.696Z,40.10
2019-04-23T14:04:39.022Z,39.42
2019-04-23T14:06:49.477Z,45.58
2019-04-23T14:09:31.954Z,45.95
2019-04-23T14:11:51.941Z,32.30
2019-04-23T14:14:41.342Z,42.78
2019-04-23T14:17:08.747Z,29.42
2019-04-23T14:19:34.366Z,42.15
2019-04-23T14:22:34.081Z,46.15
2019-04-23T14:24:54.991Z,49.67
2019-04-23T14:29:55.980Z,42.20
2019-04-23T14:32:25.063Z,49.25
2019-04-23T14:35:06.103Z,30.15
2019-04-23T14:37:21.724Z,42.43
2019-04-23T14:40:15.786Z,48.15
2019-04-23T14:45:29.745Z,40.35
2019-04-23T14:47:59.165Z,52.23
2019-04-23T14:52:56.986Z,48.70
2019-04-23T14:58:06.425Z,39.18
2019-04-23T15:00:37.656Z,43.75
2019-04-23T15:03:08.510Z,42.85
2019-04-23T15:05:40.237Z,44.10
2019-04-23T15:08:04.592Z,37.48
2019-04-23T15:10:59.647Z,49.88
2019-04-23T15:13:21.228Z,58.42
2019-04-23T15:15:57.582Z,50.10
2019-04-23T15:18:33.086Z,46.35
2019-04-23T15:21:23.807Z,38.17
2019-04-23T15:23:54.456Z,49.65
2019-04-23T15:27:09.886Z,53.33
2019-04-23T15:28:20.346Z,39.67
2019-04-23T15:36:32.799Z,43.02
2019-04-23T15:39:08.384Z,45.10
2019-04-23T15:41:32.064Z,48.08
2019-04-23T15:44:06.131Z,44.73
2019-04-23T15:46:39.311Z,43.15
2019-04-23T15:49:17.840Z,44.55
2019-04-23T15:51:45.083Z,44.60
2019-04-23T15:54:14.459Z,46.35
2019-04-23T15:56:44.632Z,48.02
2019-04-23T16:01:42.625Z,32.60
2019-04-23T16:04:01.440Z,44.67
2019-04-23T16:06:34.522Z,38.88
2019-04-23T16:09:21.019Z,43.10
2019-04-23T16:11:51.707Z,41.90
2019-04-23T16:14:40.683Z,46.40
2019-04-23T16:17:10.115Z,43.40
2019-04-23T16:19:52.914Z,39.65
2019-04-23T16:22:30.352Z,39.88
2019-04-23T16:24:55.424Z,49.88
2019-04-23T16:27:16.732Z,32.65
2019-04-23T16:30:06.309Z,46.68
2019-04-23T16:35:18.235Z,45.98
2019-04-23T16:37:39.586Z,50.58
2019-04-23T16:40:19.981Z,39.38
2019-04-23T16:42:47.835Z,36.48
2019-04-23T16:45:16.416Z,49.25
2019-04-23T16:47:46.760Z,44.75
2019-04-23T16:50:31.034Z,36.93
2019-04-23T16:53:00.212Z,44.35
2019-04-23T16:55:26.972Z,49.65
2019-04-23T16:58:01.650Z,44.98
2019-04-23T17:00:58.606Z,41.53
2019-04-23T17:03:12.729Z,47.88
2019-04-23T17:05:31.069Z,44.08
2019-04-23T17:08:33.310Z,34.45
2019-04-23T17:13:30.881Z,64.00
2019-04-23T17:16:15.234Z,43.05
2019-04-23T17:18:31.958Z,50.30
2019-04-23T17:21:07.300Z,52.10
2019-04-23T17:23:38.833Z,49.95
2019-04-23T17:26:11.312Z,50.48
2019-04-23T17:28:36.061Z,49.65
2019-04-23T17:33:43.893Z,41.75
2019-04-23T17:36:24.376Z,45.15
2019-04-23T17:38:56.871Z,51.60
2019-04-23T17:41:33.113Z,61.02
2019-04-23T17:44:18.414Z,47.25
2019-04-23T17:46:34.205Z,53.92
2019-04-23T17:49:14.338Z,55.35
2019-04-23T17:51:34.407Z,37.53
2019-04-23T17:54:13.976Z,57.95
2019-04-23T17:56:54.347Z,56.45
2019-04-23T17:59:13.777Z,37.50
2019-04-23T18:01:54.362Z,52.38
2019-04-23T18:04:21.169Z,42.43
2019-04-23T18:09:24.354Z,52.85
2019-04-23T18:14:11.516Z,43.38
2019-04-23T18:19:17.969Z,46.90
2019-04-23T18:22:15.541Z,51.90
2019-04-23T18:25:00.841Z,56.95
2019-04-23T18:27:24.276Z,41.48
2019-04-23T18:30:11.750Z,50.40
2019-04-23T18:35:22.845Z,52.20
2019-04-23T18:37:56.387Z,38.45
2019-04-23T18:40:28.767Z,59.90
2019-04-23T18:43:06.650Z,54.18
2019-04-23T18:45:41.564Z,34.08
2019-04-23T18:48:37.378Z,42.75
2019-04-23T18:50:55.249Z,39.05
2019-04-23T18:53:38.061Z,38.70
2019-04-23T18:56:05.636Z,60.00
2019-04-23T18:58:21.933Z,39.35
2019-04-23T19:03:37.316Z,35.63
2019-04-23T19:06:16.518Z,54.55
2019-04-23T19:11:37.178Z,52.60
2019-04-23T19:13:57.377Z,38.20
2019-04-23T19:16:31.400Z,61.18
2019-04-23T19:19:03.037Z,35.52
2019-04-23T19:21:47.467Z,39.45
2019-04-23T19:23:55.007Z,35.48
2019-04-23T19:26:55.277Z,56.08
2019-04-23T19:29:07.078Z,41.98
2019-04-23T19:31:54.051Z,38.53
2019-04-23T19:34:30.321Z,37.65
2019-04-23T19:42:02.136Z,35.85
2019-04-23T19:44:24.799Z,48.08
2019-04-23T19:47:02.791Z,48.85
2019-04-23T19:49:28.280Z,51.95
2019-04-23T19:51:56.489Z,48.17
2019-04-23T19:56:59.288Z,55.75
2019-04-23T19:59:37.769Z,57.10
2019-04-23T20:02:00.201Z,39.18
2019-04-23T20:04:28.780Z,44.35
2019-04-23T20:14:32.398Z,44.33
2019-04-23T20:17:17.626Z,26.90
2019-04-23T20:19:37.700Z,42.55
2019-04-23T20:24:55.733Z,36.80
2019-04-23T20:29:54.613Z,63.00
2019-04-23T20:34:56.745Z,34.92
2019-04-23T20:37:17.801Z,63.25
2019-04-23T20:42:22.267Z,33.77
2019-04-23T20:45:00.422Z,51.40
2019-04-23T20:47:15.300Z,30.00
2019-04-23T20:52:10.127Z,34.75
2019-04-23T20:58:20.888Z,38.95
2019-04-23T21:05:10.219Z,43.42
2019-04-23T21:13:15.183Z,46.25
2019-04-23T21:17:55.873Z,35.03
2019-04-23T21:20:24.532Z,42.23
2019-04-23T21:22:44.901Z,53.35
2019-04-23T21:25:16.997Z,45.73
2019-04-23T21:27:55.336Z,51.25
2019-04-23T21:30:55.868Z,52.75
2019-04-23T21:33:11.887Z,82.95
2019-04-23T21:36:12.486Z,51.48
2019-04-23T21:38:47.555Z,49.70
2019-04-23T21:46:20.419Z,46.75
2019-04-23T21:49:08.671Z,40.10
2019-04-23T21:51:44.890Z,61.15
2019-04-23T21:53:51.700Z,37.50
2019-04-23T21:56:21.173Z,47.83
2019-04-23T21:58:57.905Z,62.75
2019-04-23T22:01:32.039Z,44.23
2019-04-23T22:04:17.343Z,43.70
2019-04-23T22:09:07.322Z,38.40
2019-04-23T22:14:04.134Z,44.05
2019-04-23T22:16:44.482Z,37.10
2019-04-23T22:24:02.963Z,51.23
2019-04-23T22:29:16.503Z,63.70
2019-04-23T22:31:37.779Z,36.88
2019-04-23T22:34:08.990Z,62.40
2019-04-23T22:36:39.375Z,59.18
2019-04-23T22:39:07.825Z,56.73
2019-04-23T22:46:50.898Z,40.83
2019-04-23T22:51:52.689Z,41.05
2019-04-23T22:54:11.840Z,40.75
2019-04-23T22:56:47.409Z,50.92
2019-04-23T22:59:18.641Z,35.58
2019-04-23T23:01:50.387Z,47.75
2019-04-23T23:04:20.354Z,76.17
2019-04-23T23:06:55.480Z,44.35
2019-04-23T23:09:33.459Z,50.23
2019-04-23T23:11:54.270Z,30.57
2019-04-23T23:19:22.212Z,61.02
2019-04-23T23:21:59.763Z,56.70
2019-04-23T23:29:19.784Z,43.58
2019-04-23T23:36:54.910Z,46.43
2019-04-23T23:39:22.063Z,68.12
2019-04-23T23:44:43.871Z,38.10
2019-04-23T23:49:24.059Z,54.40
2019-04-23T23:52:03.222Z,66.75
2019-04-23T23:54:21.584Z,50.90
2019-04-23T23:59:24.713Z,79.62
